createdAt,value
2022-11-14T00:01:07.873Z,25.45
2022-11-14T00:03:36.819Z,24.10
2022-11-14T00:06:05.877Z,24.90
2022-11-14T00:08:33.575Z,26.17
2022-11-14T00:11:01.063Z,25.17
2022-11-14T00:13:28.612Z,24.90
2022-11-14T00:15:56.099Z,24.92
2022-11-14T00:18:24.139Z,26.63
2022-11-14T00:20:53.615Z,25.15
2022-11-14T00:23:21.375Z,25.70
2022-11-14T00:25:49.050Z,27.70
2022-11-14T00:28:16.897Z,25.58
2022-11-14T00:30:47.394Z,25.73
2022-11-14T00:33:20.097Z,25.98
2022-11-14T00:35:53.128Z,25.42
2022-11-14T00:38:20.680Z,24.75
2022-11-14T00:40:48.196Z,25.25
2022-11-14T00:43:15.643Z,23.85
2022-11-14T00:45:43.721Z,24.55
2022-11-14T00:48:11.247Z,24.65
2022-11-14T00:50:39.013Z,22.73
2022-11-14T00:53:07.863Z,24.13
2022-11-14T00:55:35.374Z,24.08
2022-11-14T00:58:02.894Z,23.38
2022-11-14T01:00:30.473Z,22.73
2022-11-14T01:02:58.370Z,24.50
2022-11-14T01:05:26.319Z,22.20
2022-11-14T01:07:53.858Z,23.35
2022-11-14T01:10:22.728Z,23.17
2022-11-14T01:12:50.381Z,23.75
2022-11-14T01:15:17.854Z,23.50
2022-11-14T01:17:45.332Z,22.92
2022-11-14T01:20:12.830Z,25.95
2022-11-14T01:22:40.328Z,23.27
2022-11-14T01:25:08.165Z,25.58
2022-11-14T01:27:36.974Z,24.40
2022-11-14T01:30:04.812Z,23.80
2022-11-14T01:32:32.238Z,24.77
2022-11-14T01:34:59.720Z,25.08
2022-11-14T01:37:27.154Z,25.73
2022-11-14T01:39:54.643Z,24.42
2022-11-14T01:42:26.925Z,25.45
2022-11-14T01:44:56.291Z,25.63
2022-11-14T01:47:24.983Z,27.65
2022-11-14T01:49:54.591Z,27.85
2022-11-14T01:52:24.096Z,30.10
2022-11-14T01:54:53.776Z,28.30
2022-11-14T01:57:23.562Z,28.40
2022-11-14T01:59:52.682Z,26.52
2022-11-14T02:02:23.176Z,27.92
2022-11-14T02:04:52.881Z,28.27
2022-11-14T02:07:20.637Z,28.95
2022-11-14T02:09:49.688Z,28.02
2022-11-14T02:12:18.345Z,27.30
2022-11-14T02:14:47.073Z,27.42
2022-11-14T02:17:29.048Z,27.90
2022-11-14T02:20:05.297Z,27.70
2022-11-14T02:22:34.550Z,27.50
2022-11-14T02:25:02.228Z,27.58
2022-11-14T02:27:30.445Z,27.48
2022-11-14T02:30:03.640Z,25.48
2022-11-14T02:32:45.033Z,26.58
2022-11-14T02:35:18.670Z,26.83
2022-11-14T02:37:47.611Z,25.60
2022-11-14T02:40:15.173Z,27.23
2022-11-14T02:42:42.682Z,27.02
2022-11-14T02:45:10.753Z,25.40
2022-11-14T02:47:38.289Z,24.27
2022-11-14T02:50:06.201Z,25.30
2022-11-14T02:52:33.650Z,24.55
2022-11-14T02:55:02.487Z,26.20
2022-11-14T02:57:29.946Z,24.55
2022-11-14T02:59:57.360Z,24.92
2022-11-14T03:02:24.820Z,25.25
2022-11-14T03:04:52.412Z,24.67
2022-11-14T03:07:20.036Z,24.85
2022-11-14T03:09:47.607Z,25.45
2022-11-14T03:12:18.125Z,25.45
2022-11-14T03:14:45.851Z,25.40
2022-11-14T03:17:13.352Z,25.20
2022-11-14T03:19:40.942Z,24.42
2022-11-14T03:22:08.431Z,23.52
2022-11-14T03:24:35.962Z,25.60
2022-11-14T03:27:03.411Z,25.13
2022-11-14T03:29:32.219Z,24.23
2022-11-14T03:31:59.808Z,24.13
2022-11-14T03:34:27.305Z,24.70
2022-11-14T03:36:54.802Z,25.40
2022-11-14T03:39:22.331Z,24.17
2022-11-14T03:41:49.826Z,24.10
2022-11-14T03:44:17.294Z,23.58
2022-11-14T03:46:46.099Z,24.10
2022-11-14T03:49:13.525Z,24.20
2022-11-14T03:51:40.997Z,24.20
2022-11-14T03:54:08.637Z,24.38
2022-11-14T03:56:36.111Z,24.10
2022-11-14T03:59:03.612Z,24.85
2022-11-14T04:01:31.141Z,22.67
2022-11-14T04:04:01.064Z,24.85
2022-11-14T04:06:28.573Z,25.63
2022-11-14T04:08:56.640Z,24.83
2022-11-14T04:11:24.116Z,24.95
2022-11-14T04:13:51.566Z,25.02
2022-11-14T04:16:19.025Z,24.90
2022-11-14T04:18:46.522Z,25.77
2022-11-14T04:21:15.460Z,26.38
2022-11-14T04:23:42.897Z,26.27
2022-11-14T04:26:10.360Z,25.80
2022-11-14T04:28:37.852Z,24.38
2022-11-14T04:31:05.388Z,24.95
2022-11-14T04:33:32.846Z,25.88
2022-11-14T04:36:00.317Z,26.45
2022-11-14T04:38:29.564Z,27.60
2022-11-14T04:40:57.178Z,25.83
2022-11-14T04:43:24.622Z,27.02
2022-11-14T04:45:52.060Z,26.38
2022-11-14T04:48:19.556Z,26.25
2022-11-14T04:50:47.086Z,27.95
2022-11-14T04:53:14.537Z,26.58
2022-11-14T04:55:44.770Z,25.10
2022-11-14T04:58:12.234Z,25.67
2022-11-14T05:00:39.773Z,26.92
2022-11-14T05:03:07.201Z,27.08
2022-11-14T05:05:39.253Z,25.85
2022-11-14T05:08:09.139Z,26.88
2022-11-14T05:10:36.692Z,27.17
2022-11-14T05:13:05.554Z,28.15
2022-11-14T05:15:33.033Z,26.05
2022-11-14T05:18:00.529Z,29.23
2022-11-14T05:20:28.040Z,26.73
2022-11-14T05:22:56.245Z,25.60
2022-11-14T05:25:24.124Z,27.23
2022-11-14T05:27:51.619Z,27.00
2022-11-14T05:30:20.558Z,25.58
2022-11-14T05:32:48.146Z,28.80
2022-11-14T05:35:15.761Z,25.55
2022-11-14T05:37:43.280Z,25.88
2022-11-14T05:40:11.346Z,26.63
2022-11-14T05:42:38.830Z,25.15
2022-11-14T05:45:06.954Z,26.25
2022-11-14T05:47:35.834Z,25.23
2022-11-14T05:50:03.412Z,25.88
2022-11-14T05:52:31.772Z,27.02
2022-11-14T05:54:59.200Z,27.33
2022-11-14T05:57:26.666Z,26.90
2022-11-14T05:59:54.144Z,28.23
2022-11-14T06:02:21.700Z,27.00
2022-11-14T06:04:50.548Z,26.38
2022-11-14T06:07:20.340Z,26.80
2022-11-14T06:09:48.076Z,27.48
2022-11-14T06:12:15.584Z,24.85
2022-11-14T06:14:43.078Z,24.55
2022-11-14T06:17:10.529Z,25.83
2022-11-14T06:19:38.017Z,25.05
2022-11-14T06:22:06.968Z,24.88
2022-11-14T06:24:34.395Z,24.83
2022-11-14T06:27:01.871Z,26.20
2022-11-14T06:29:35.227Z,25.05
2022-11-14T06:32:03.014Z,25.55
2022-11-14T06:34:30.497Z,23.25
2022-11-14T06:36:57.916Z,26.88
2022-11-14T06:39:26.777Z,25.73
2022-11-14T06:41:54.341Z,25.50
2022-11-14T06:44:24.093Z,26.13
2022-11-14T06:46:57.598Z,25.40
2022-11-14T06:49:25.138Z,23.88
2022-11-14T06:51:52.714Z,26.70
2022-11-14T06:54:20.470Z,26.70
2022-11-14T06:56:49.319Z,25.92
2022-11-14T06:59:16.862Z,25.60
2022-11-14T07:01:44.351Z,27.75
2022-11-14T07:04:11.797Z,24.90
2022-11-14T07:06:39.283Z,26.85
2022-11-14T07:09:06.747Z,26.50
2022-11-14T07:11:36.339Z,25.73
2022-11-14T07:14:06.689Z,27.17
2022-11-14T07:16:35.254Z,27.90
2022-11-14T07:19:03.878Z,23.50
2022-11-14T07:21:32.100Z,25.20
2022-11-14T07:23:59.693Z,25.10
2022-11-14T07:26:27.194Z,25.25
2022-11-14T07:29:00.774Z,23.13
2022-11-14T07:31:31.138Z,24.08
2022-11-14T07:33:58.605Z,24.92
2022-11-14T07:36:26.082Z,24.55
2022-11-14T07:38:53.531Z,24.85
2022-11-14T07:41:21.065Z,24.52
2022-11-14T07:43:48.538Z,25.80
2022-11-14T07:46:16.850Z,26.25
2022-11-14T07:48:45.765Z,24.70
2022-11-14T07:51:15.568Z,25.63
2022-11-14T07:53:43.140Z,25.42
2022-11-14T07:56:10.918Z,25.10
2022-11-14T07:58:38.758Z,26.63
2022-11-14T08:01:06.944Z,26.17
2022-11-14T08:03:34.670Z,24.95
2022-11-14T08:06:04.379Z,24.75
2022-11-14T08:08:32.397Z,24.52
2022-11-14T08:11:00.589Z,25.00
2022-11-14T08:13:33.250Z,23.02
2022-11-14T08:16:09.163Z,24.48
2022-11-14T08:18:39.669Z,22.05
2022-11-14T08:21:08.612Z,21.50
2022-11-14T08:23:36.117Z,21.98
2022-11-14T08:26:03.635Z,21.80
2022-11-14T08:28:31.473Z,19.67
2022-11-14T08:31:02.894Z,21.80
2022-11-14T08:36:00.884Z,21.88
2022-11-14T08:38:30.009Z,21.95
2022-11-14T08:40:58.874Z,20.35
2022-11-14T08:43:26.550Z,20.63
2022-11-14T08:45:54.031Z,20.75
2022-11-14T08:48:21.481Z,19.98
2022-11-14T08:50:48.958Z,21.73
2022-11-14T08:53:16.434Z,21.95
2022-11-14T08:55:46.156Z,19.85
2022-11-14T08:58:13.625Z,21.05
2022-11-14T09:00:41.098Z,18.98
2022-11-14T09:03:09.356Z,21.55
2022-11-14T09:05:36.877Z,19.08
2022-11-14T09:08:04.435Z,20.08
2022-11-14T09:10:31.967Z,20.23
2022-11-14T09:13:01.718Z,19.90
2022-11-14T09:15:29.337Z,19.42
2022-11-14T09:17:57.208Z,19.05
2022-11-14T09:20:31.516Z,19.40
2022-11-14T09:23:00.143Z,18.70
2022-11-14T09:25:27.718Z,18.90
2022-11-14T09:27:55.214Z,18.08
2022-11-14T09:30:24.079Z,19.15
2022-11-14T09:32:51.881Z,18.25
2022-11-14T09:35:19.344Z,18.70
2022-11-14T09:37:46.790Z,17.73
2022-11-14T09:40:14.625Z,20.00
2022-11-14T09:42:52.414Z,18.38
2022-11-14T09:45:20.312Z,19.70
2022-11-14T09:47:51.461Z,18.38
2022-11-14T09:50:25.420Z,18.05
2022-11-14T09:52:54.715Z,19.00
2022-11-14T09:55:22.981Z,18.10
2022-11-14T09:57:50.516Z,18.95
2022-11-14T10:00:19.271Z,18.30
2022-11-14T10:03:05.385Z,17.88
2022-11-14T10:05:45.034Z,17.73
2022-11-14T10:08:18.730Z,17.98
2022-11-14T10:10:52.102Z,18.58
2022-11-14T10:13:27.500Z,18.70
2022-11-14T10:15:57.252Z,18.63
2022-11-14T10:18:34.862Z,17.17
2022-11-14T10:23:36.844Z,17.05
2022-11-14T10:26:10.031Z,17.30
2022-11-14T10:28:42.971Z,16.58
2022-11-14T10:31:16.417Z,17.13
2022-11-14T10:33:50.562Z,16.33
2022-11-14T10:36:22.287Z,16.77
2022-11-14T10:38:53.381Z,17.35
2022-11-14T10:44:11.674Z,17.80
2022-11-14T10:49:14.585Z,16.88
2022-11-14T10:51:44.602Z,16.27
2022-11-14T10:54:14.561Z,15.45
2022-11-14T10:56:47.334Z,16.92
2022-11-14T10:59:14.886Z,16.27
2022-11-14T11:01:43.584Z,16.85
2022-11-14T11:04:15.374Z,16.10
2022-11-14T11:06:42.934Z,16.38
2022-11-14T11:09:31.463Z,15.68
2022-11-14T11:12:01.909Z,14.95
2022-11-14T11:14:30.065Z,16.75
2022-11-14T11:17:15.914Z,15.65
2022-11-14T11:19:43.835Z,16.45
2022-11-14T11:22:25.518Z,15.90
2022-11-14T11:24:53.016Z,14.90
2022-11-14T11:27:25.863Z,13.93
2022-11-14T11:30:03.592Z,15.23
2022-11-14T11:32:31.065Z,13.52
2022-11-14T11:34:58.876Z,13.73
2022-11-14T11:39:57.478Z,12.77
2022-11-14T11:42:58.793Z,13.85
2022-11-14T11:45:17.945Z,12.88
2022-11-14T11:47:49.191Z,13.50
2022-11-14T11:50:17.868Z,13.23
2022-11-14T11:52:49.488Z,14.23
2022-11-14T11:55:18.737Z,13.32
2022-11-14T11:57:49.188Z,13.50
2022-11-14T12:00:17.655Z,11.82
2022-11-14T12:02:49.997Z,13.50
2022-11-14T12:05:19.655Z,12.52
2022-11-14T12:07:51.717Z,12.68
2022-11-14T12:10:21.823Z,12.95
2022-11-14T12:13:02.029Z,12.65
2022-11-14T12:15:32.909Z,13.30
2022-11-14T12:18:24.045Z,12.05
2022-11-14T12:21:03.661Z,13.15
2022-11-14T12:23:58.266Z,12.43
2022-11-14T12:26:36.775Z,12.93
2022-11-14T12:29:19.792Z,11.70
2022-11-14T12:31:52.508Z,11.95
2022-11-14T12:34:24.225Z,12.25
2022-11-14T12:36:52.160Z,11.57
2022-11-14T12:39:25.106Z,10.93
2022-11-14T12:42:01.326Z,11.70
2022-11-14T12:44:38.280Z,11.70
2022-11-14T12:49:40.092Z,10.27
2022-11-14T12:52:27.697Z,11.18
2022-11-14T12:54:56.473Z,9.77
2022-11-14T12:57:45.250Z,10.15
2022-11-14T13:00:13.089Z,10.35
2022-11-14T13:03:04.705Z,10.75
2022-11-14T13:05:49.636Z,10.13
2022-11-14T13:08:23.230Z,10.35
2022-11-14T13:10:52.177Z,10.32
2022-11-14T13:13:37.249Z,9.77
2022-11-14T13:16:22.466Z,10.05
2022-11-14T13:19:12.002Z,10.77
2022-11-14T13:21:48.936Z,9.65
2022-11-14T13:26:47.423Z,10.07
2022-11-14T13:31:49.777Z,9.32
2022-11-14T13:34:30.407Z,9.80
2022-11-14T13:37:00.905Z,9.50
2022-11-14T13:39:31.088Z,10.07
2022-11-14T13:42:16.296Z,10.27
2022-11-14T13:45:00.635Z,9.93
2022-11-14T13:47:35.077Z,9.85
2022-11-14T13:50:04.319Z,8.98
2022-11-14T13:52:33.069Z,10.32
2022-11-14T13:55:01.198Z,10.27
2022-11-14T13:57:34.253Z,8.95
2022-11-14T14:00:16.746Z,9.15
2022-11-14T14:03:09.218Z,10.02
2022-11-14T14:05:42.689Z,10.10
2022-11-14T14:08:15.645Z,9.63
2022-11-14T14:10:43.839Z,9.95
2022-11-14T14:13:15.383Z,9.10
2022-11-14T14:15:47.726Z,10.20
2022-11-14T14:18:22.035Z,10.07
2022-11-14T14:20:55.068Z,9.85
2022-11-14T14:23:28.389Z,9.82
2022-11-14T14:26:01.342Z,9.20
2022-11-14T14:28:34.397Z,9.43
2022-11-14T14:31:04.260Z,9.40
2022-11-14T14:33:40.155Z,9.00
2022-11-14T14:36:17.190Z,9.88
2022-11-14T14:41:14.127Z,8.95
2022-11-14T14:43:43.021Z,9.35
2022-11-14T14:46:12.002Z,9.20
2022-11-14T14:48:41.942Z,9.48
2022-11-14T14:51:13.580Z,9.30
2022-11-14T14:53:41.109Z,9.88
2022-11-14T14:56:18.411Z,9.23
2022-11-14T14:58:45.965Z,10.45
2022-11-14T15:01:16.335Z,9.93
2022-11-14T15:03:47.431Z,9.60
2022-11-14T15:06:29.740Z,10.35
2022-11-14T15:08:57.782Z,10.50
2022-11-14T15:11:31.295Z,10.35
2022-11-14T15:14:01.269Z,11.88
2022-11-14T15:16:30.440Z,10.68
2022-11-14T15:18:58.903Z,9.98
2022-11-14T15:21:28.305Z,11.82
2022-11-14T15:23:59.745Z,11.52
2022-11-14T15:26:27.389Z,11.05
2022-11-14T15:29:04.019Z,11.35
2022-11-14T15:31:33.937Z,11.05
2022-11-14T15:34:02.682Z,11.55
2022-11-14T15:36:30.180Z,12.05
2022-11-14T15:39:01.295Z,12.15
2022-11-14T15:41:29.772Z,12.32
2022-11-14T15:44:01.818Z,12.95
2022-11-14T15:46:44.151Z,11.85
2022-11-14T15:49:19.805Z,12.73
2022-11-14T15:51:48.420Z,13.40
2022-11-14T15:54:37.696Z,13.10
2022-11-14T15:57:10.541Z,13.98
2022-11-14T15:59:38.211Z,12.60
2022-11-14T16:02:11.619Z,12.95
2022-11-14T16:04:47.053Z,12.65
2022-11-14T16:07:16.180Z,13.23
2022-11-14T16:09:44.075Z,14.70
2022-11-14T16:12:11.703Z,14.27
2022-11-14T16:14:39.159Z,12.95
2022-11-14T16:17:06.694Z,13.35
2022-11-14T16:19:34.148Z,12.85
2022-11-14T16:22:03.530Z,13.15
2022-11-14T16:24:33.884Z,14.27
2022-11-14T16:27:02.188Z,13.88
2022-11-14T16:29:29.690Z,14.15
2022-11-14T16:31:57.219Z,14.07
2022-11-14T16:34:25.895Z,14.23
2022-11-14T16:36:57.969Z,13.88
2022-11-14T16:39:27.062Z,13.88
2022-11-14T16:41:54.514Z,13.75
2022-11-14T16:44:22.075Z,13.50
2022-11-14T16:46:49.632Z,14.07
2022-11-14T16:49:17.903Z,13.02
2022-11-14T16:51:48.193Z,13.20
2022-11-14T16:54:16.310Z,13.68
2022-11-14T16:56:45.157Z,14.70
2022-11-14T16:59:12.835Z,14.50
2022-11-14T17:01:40.570Z,14.55
2022-11-14T17:04:08.171Z,15.38
2022-11-14T17:06:35.682Z,16.15
2022-11-14T17:09:03.304Z,16.95
2022-11-14T17:11:30.880Z,15.52
2022-11-14T17:13:59.706Z,15.13
2022-11-14T17:16:27.177Z,14.30
2022-11-14T17:18:55.152Z,15.43
2022-11-14T17:21:22.800Z,14.60
2022-11-14T17:23:54.287Z,14.55
2022-11-14T17:26:21.738Z,13.73
2022-11-14T17:28:49.243Z,14.73
2022-11-14T17:31:18.372Z,14.43
2022-11-14T17:33:51.275Z,14.13
2022-11-14T17:36:18.877Z,14.98
2022-11-14T17:38:46.369Z,14.68
2022-11-14T17:41:14.027Z,14.02
2022-11-14T17:43:41.833Z,14.25
2022-11-14T17:46:15.665Z,14.65
2022-11-14T17:48:45.686Z,15.50
2022-11-14T17:51:14.092Z,14.43
2022-11-14T17:53:41.966Z,15.13
2022-11-14T17:56:10.793Z,14.63
2022-11-14T17:58:38.222Z,14.05
2022-11-14T18:01:09.884Z,15.18
2022-11-14T18:03:37.442Z,14.85
2022-11-14T18:06:10.291Z,14.10
2022-11-14T18:08:38.029Z,14.75
2022-11-14T18:11:06.738Z,14.75
2022-11-14T18:13:34.302Z,14.30
2022-11-14T18:16:02.574Z,14.50
2022-11-14T18:18:31.476Z,14.50
2022-11-14T18:20:59.546Z,15.30
2022-11-14T18:23:28.396Z,14.75
2022-11-14T18:25:55.880Z,14.60
2022-11-14T18:28:23.751Z,13.68
2022-11-14T18:30:55.538Z,14.93
2022-11-14T18:33:23.169Z,14.52
2022-11-14T18:35:57.125Z,14.05
2022-11-14T18:38:24.661Z,14.98
2022-11-14T18:40:57.309Z,14.57
2022-11-14T18:43:25.084Z,15.38
2022-11-14T18:45:52.517Z,15.63
2022-11-14T18:48:20.143Z,15.63
2022-11-14T18:50:48.261Z,15.05
2022-11-14T18:53:15.710Z,14.68
2022-11-14T18:55:43.159Z,14.05
2022-11-14T18:58:14.302Z,14.52
2022-11-14T19:00:41.856Z,15.27
2022-11-14T19:03:10.923Z,15.07
2022-11-14T19:05:38.439Z,15.18
2022-11-14T19:08:07.636Z,14.95
2022-11-14T19:10:35.313Z,15.07
2022-11-14T19:13:02.795Z,16.63
2022-11-14T19:15:32.112Z,15.73
2022-11-14T19:17:59.579Z,15.27
2022-11-14T19:20:27.098Z,15.38
2022-11-14T19:22:54.562Z,15.15
2022-11-14T19:25:22.050Z,15.45
2022-11-14T19:27:50.985Z,15.65
2022-11-14T19:30:18.598Z,15.30
2022-11-14T19:32:47.429Z,15.57
2022-11-14T19:35:20.317Z,14.45
2022-11-14T19:37:48.031Z,14.65
2022-11-14T19:40:15.571Z,14.77
2022-11-14T19:42:43.083Z,14.73
2022-11-14T19:45:11.084Z,15.70
2022-11-14T19:47:38.566Z,15.88
2022-11-14T19:50:07.963Z,15.73
2022-11-14T19:52:35.450Z,15.00
2022-11-14T19:55:02.989Z,14.55
2022-11-14T19:57:31.187Z,15.82
2022-11-14T19:59:58.632Z,15.70
2022-11-14T20:02:28.502Z,16.00
2022-11-14T20:04:55.986Z,16.23
2022-11-14T20:07:25.009Z,16.92
2022-11-14T20:09:52.623Z,16.17
2022-11-14T20:12:20.130Z,16.00
2022-11-14T20:14:47.655Z,15.88
2022-11-14T20:17:15.169Z,15.52
2022-11-14T20:19:42.788Z,17.10
2022-11-14T20:22:11.070Z,15.95
2022-11-14T20:24:39.991Z,16.20
2022-11-14T20:27:07.461Z,17.58
2022-11-14T20:29:34.979Z,16.98
2022-11-14T20:32:03.119Z,17.60
2022-11-14T20:34:31.109Z,15.98
2022-11-14T20:37:14.117Z,15.13
2022-11-14T20:39:43.046Z,15.57
2022-11-14T20:42:10.562Z,16.15
2022-11-14T20:44:38.136Z,16.17
2022-11-14T20:47:10.660Z,16.60
2022-11-14T20:49:38.661Z,15.65
2022-11-14T20:52:06.311Z,17.13
2022-11-14T20:54:33.877Z,16.27
2022-11-14T20:57:02.737Z,16.38
2022-11-14T20:59:30.244Z,16.33
2022-11-14T21:01:57.752Z,15.50
2022-11-14T21:04:25.321Z,15.60
2022-11-14T21:06:52.821Z,15.77
2022-11-14T21:09:20.541Z,16.98
2022-11-14T21:11:47.970Z,16.83
2022-11-14T21:14:16.913Z,15.88
2022-11-14T21:16:44.465Z,16.00
2022-11-14T21:19:11.894Z,16.17
2022-11-14T21:21:39.452Z,17.65
2022-11-14T21:24:07.365Z,16.30
2022-11-14T21:26:35.378Z,16.45
2022-11-14T21:29:03.706Z,15.32
2022-11-14T21:31:33.418Z,14.57
2022-11-14T21:34:02.077Z,16.90
2022-11-14T21:36:46.579Z,15.60
2022-11-14T21:39:16.450Z,17.50
2022-11-14T21:41:44.839Z,16.50
2022-11-14T21:44:12.992Z,17.15
2022-11-14T21:46:42.582Z,16.88
2022-11-14T21:49:10.591Z,16.92
2022-11-14T21:51:38.094Z,16.70
2022-11-14T21:54:06.395Z,16.70
2022-11-14T21:56:35.337Z,17.88
2022-11-14T21:59:15.822Z,16.10
2022-11-14T22:02:15.553Z,16.20
2022-11-14T22:04:43.007Z,15.75
2022-11-14T22:07:10.533Z,16.92
2022-11-14T22:09:43.990Z,17.25
2022-11-14T22:12:12.505Z,16.08
2022-11-14T22:14:39.974Z,16.63
2022-11-14T22:17:08.782Z,16.52
2022-11-14T22:19:36.292Z,16.50
2022-11-14T22:22:03.761Z,16.73
2022-11-14T22:24:31.218Z,16.38
2022-11-14T22:26:58.666Z,16.40
2022-11-14T22:29:26.127Z,17.17
2022-11-14T22:31:55.395Z,16.58
2022-11-14T22:34:24.401Z,17.45
2022-11-14T22:36:51.886Z,16.25
2022-11-14T22:39:19.369Z,15.93
2022-11-14T22:41:46.880Z,16.38
2022-11-14T22:44:14.343Z,16.85
2022-11-14T22:46:41.821Z,16.38
2022-11-14T22:49:09.333Z,16.38
2022-11-14T22:51:38.121Z,15.63
2022-11-14T22:54:05.673Z,18.88
2022-11-14T22:56:33.125Z,17.05
2022-11-14T22:59:00.973Z,18.05
2022-11-14T23:01:29.724Z,16.58
2022-11-14T23:03:58.088Z,17.58
2022-11-14T23:06:25.901Z,18.33
2022-11-14T23:08:55.196Z,17.05
2022-11-14T23:11:23.706Z,17.33
2022-11-14T23:13:52.358Z,17.48
2022-11-14T23:16:20.606Z,17.70
2022-11-14T23:18:48.314Z,18.08
2022-11-14T23:21:16.749Z,17.60
2022-11-14T23:23:44.360Z,17.60
2022-11-14T23:26:13.957Z,17.33
2022-11-14T23:28:41.594Z,17.45
2022-11-14T23:31:09.542Z,17.35
2022-11-14T23:33:37.021Z,18.60
2022-11-14T23:36:04.917Z,18.00
2022-11-14T23:38:32.407Z,17.98
2022-11-14T23:41:00.488Z,17.02
2022-11-14T23:43:30.324Z,18.92
2022-11-14T23:45:58.569Z,17.17
2022-11-14T23:48:26.354Z,18.30
2022-11-14T23:50:54.923Z,18.50
2022-11-14T23:53:22.524Z,17.13
2022-11-14T23:55:53.430Z,17.15
2022-11-14T23:58:21.014Z,17.60
